メインページ
METAR-TAF:

METAR-TAF

空港 :

キュラソー島, オランダ領アンティル

ハト国際空港

緯度: 12-12N, 経度: 068-58W, 海抜: 9m

現時点の気象観測

当レポートは39分前の19:00(UTC)に作成
東/北東の風 10kt
気温 28°C
湿度 84%
気圧 1011 hPa
視程10km以上
高度1600ftの雲は散在している

METAR: TNCC 251900Z 06010KT 9999 SCT016 28/25 Q1011 NOSIG

時間: 15:39 (19:39 UTC)

予報

当レポートは3時間39分前の16:00(UTC)に作成
予報は25日の 18時(UTC)から 26日の 18時(UTC)まで有効
の風 8kt
視程10km以上
高度1800ftの雲は散在している
25日の 18時(UTC)から 25日の 24時(UTC)まで一時的に
高度1400ftの千切れ雲あり
確率 30% :
間 50から00 UTC一時的に
高度1200ftの雲は散在している, 積乱雲.
激しい雷雨, 雨

TAF: TNCC 251600Z 2518/2618 09008KT 9999 SCT018 TEMPO 2518/2524 BKN014 PROB30 TEMPO 5000 TSRA SCT012CB

4,000以上の空港の気象観測と天気予報(METAR報とTAF報)

利用可能な観測所は地図上に黄色い丸と赤い丸で示す。

丸の上にカーソルを重ねると観測所名を参照できる。

次にクリックすると気象観測と天気予報を参照できる。

マップの切り替え:黒色「×」印の緑ボタンをクリックして拡大、「-」印の緑ボタンをクリックして縮小、緑色の三角印をクリックして隣りの地図に切り替え


METAR-TAF: